createdAt,value
2022-08-05T00:00:27.445Z,100.00
2022-08-05T00:03:00.926Z,100.00
2022-08-05T00:06:05.728Z,100.00
2022-08-05T00:08:34.333Z,100.00
2022-08-05T00:11:20.745Z,100.00
2022-08-05T00:14:11.954Z,100.00
2022-08-05T00:16:52.960Z,100.00
2022-08-05T00:19:33.385Z,100.00
2022-08-05T00:22:13.137Z,100.00
2022-08-05T00:24:45.605Z,100.00
2022-08-05T00:27:35.654Z,100.00
2022-08-05T00:30:11.355Z,100.00
2022-08-05T00:32:45.006Z,100.00
2022-08-05T00:35:20.295Z,100.00
2022-08-05T00:37:54.240Z,100.00
2022-08-05T00:40:29.162Z,100.00
2022-08-05T00:43:02.881Z,100.00
2022-08-05T00:45:43.649Z,100.00
2022-08-05T00:48:27.590Z,100.00
2022-08-05T00:51:08.816Z,100.00
2022-08-05T00:54:02.412Z,100.00
2022-08-05T00:56:35.565Z,100.00
2022-08-05T00:59:11.563Z,100.00
2022-08-05T01:01:48.710Z,100.00
2022-08-05T01:04:26.992Z,100.00
2022-08-05T01:07:02.732Z,100.00
2022-08-05T01:09:38.512Z,100.00
2022-08-05T01:12:18.652Z,100.00
2022-08-05T01:15:05.426Z,100.00
2022-08-05T01:17:53.772Z,100.00
2022-08-05T01:20:48.510Z,100.00
2022-08-05T01:23:56.110Z,100.00
2022-08-05T01:26:51.230Z,100.00
2022-08-05T01:29:34.955Z,100.00
2022-08-05T01:32:12.483Z,100.00
2022-08-05T01:34:57.124Z,100.00
2022-08-05T01:37:47.873Z,100.00
2022-08-05T01:40:29.025Z,100.00
2022-08-05T01:43:03.725Z,100.00
2022-08-05T01:45:43.085Z,100.00
2022-08-05T01:48:17.309Z,100.00
2022-08-05T01:50:51.593Z,100.00
2022-08-05T01:53:57.708Z,100.00
2022-08-05T01:58:13.084Z,100.00
2022-08-05T01:59:18.241Z,100.00
2022-08-05T02:01:57.949Z,100.00
2022-08-05T02:04:35.140Z,100.00
2022-08-05T02:07:09.518Z,100.00
2022-08-05T02:09:42.565Z,100.00
2022-08-05T02:12:33.189Z,100.00
2022-08-05T02:15:24.361Z,100.00
2022-08-05T02:18:32.940Z,100.00
2022-08-05T02:21:14.758Z,100.00
2022-08-05T02:23:51.766Z,100.00
2022-08-05T02:26:33.789Z,100.00
2022-08-05T02:29:09.430Z,100.00
2022-08-05T02:31:59.392Z,100.00
2022-08-05T02:34:37.725Z,100.00
2022-08-05T02:37:15.223Z,100.00
2022-08-05T02:39:52.201Z,100.00
2022-08-05T02:42:30.695Z,100.00
2022-08-05T02:45:07.939Z,100.00
2022-08-05T02:48:07.266Z,100.00
2022-08-05T02:50:38.421Z,100.00
2022-08-05T02:53:19.631Z,100.00
2022-08-05T02:55:59.696Z,100.00
2022-08-05T02:58:34.806Z,100.00
2022-08-05T03:01:11.564Z,100.00
2022-08-05T03:04:03.158Z,100.00
2022-08-05T03:06:53.820Z,100.00
2022-08-05T03:09:37.539Z,100.00
2022-08-05T03:12:40.286Z,100.00
2022-08-05T03:15:14.081Z,100.00
2022-08-05T03:17:49.216Z,100.00
2022-08-05T03:20:27.173Z,100.00
2022-08-05T03:23:00.561Z,100.00
2022-08-05T03:26:04.879Z,100.00
2022-08-05T03:28:29.790Z,100.00
2022-08-05T03:31:04.162Z,100.00
2022-08-05T03:33:49.361Z,100.00
2022-08-05T03:36:30.302Z,100.00
2022-08-05T03:39:08.329Z,100.00
2022-08-05T03:41:46.885Z,100.00
2022-08-05T03:44:20.242Z,100.00
2022-08-05T03:46:53.579Z,100.00
2022-08-05T03:49:31.095Z,100.00
2022-08-05T03:52:50.492Z,100.00
2022-08-05T03:56:01.329Z,100.00
2022-08-05T03:58:29.385Z,100.00
2022-08-05T04:01:04.781Z,100.00
2022-08-05T04:03:39.510Z,100.00
2022-08-05T04:06:13.132Z,100.00
2022-08-05T04:08:48.632Z,100.00
2022-08-05T04:11:21.342Z,100.00
2022-08-05T04:13:56.719Z,100.00
2022-08-05T04:16:36.942Z,100.00
2022-08-05T04:19:13.449Z,100.00
2022-08-05T04:22:09.812Z,100.00
2022-08-05T04:24:52.639Z,100.00
2022-08-05T04:27:33.266Z,100.00
2022-08-05T04:30:15.871Z,100.00
2022-08-05T04:32:48.766Z,100.00
2022-08-05T04:35:22.156Z,100.00
2022-08-05T04:38:00.729Z,100.00
2022-08-05T04:40:44.483Z,100.00
2022-08-05T04:43:23.421Z,100.00
2022-08-05T04:45:58.789Z,100.00
2022-08-05T04:48:32.014Z,100.00
2022-08-05T04:51:11.479Z,100.00
2022-08-05T04:53:44.418Z,100.00
2022-08-05T04:56:34.640Z,100.00
2022-08-05T04:59:22.141Z,100.00
2022-08-05T05:02:07.693Z,100.00
2022-08-05T05:05:02.365Z,100.00
2022-08-05T05:07:36.244Z,100.00
2022-08-05T05:10:09.423Z,100.00
2022-08-05T05:12:42.148Z,100.00
2022-08-05T05:15:17.545Z,100.00
2022-08-05T05:18:09.891Z,100.00
2022-08-05T05:20:47.252Z,100.00
2022-08-05T05:23:23.486Z,100.00
2022-08-05T05:25:56.181Z,100.00
2022-08-05T05:28:28.977Z,100.00
2022-08-05T05:31:01.994Z,100.00
2022-08-05T05:33:58.900Z,100.00
2022-08-05T05:36:32.366Z,100.00
2022-08-05T05:39:10.859Z,100.00
2022-08-05T05:41:44.543Z,100.00
2022-08-05T05:44:36.229Z,100.00
2022-08-05T05:47:22.032Z,100.00
2022-08-05T05:49:56.921Z,100.00
2022-08-05T05:52:34.561Z,100.00
2022-08-05T05:55:13.692Z,100.00
2022-08-05T05:57:52.094Z,100.00
2022-08-05T06:00:27.842Z,100.00
2022-08-05T06:03:39.960Z,100.00
2022-08-05T06:05:58.235Z,100.00
2022-08-05T06:08:32.531Z,100.00
2022-08-05T06:11:07.505Z,100.00
2022-08-05T06:13:40.900Z,100.00
2022-08-05T06:16:28.285Z,100.00
2022-08-05T06:19:05.465Z,99.85
2022-08-05T06:21:41.702Z,99.43
2022-08-05T06:24:15.596Z,99.32
2022-08-05T06:26:52.012Z,98.87
2022-08-05T06:29:46.828Z,98.46
2022-08-05T06:32:25.411Z,98.93
2022-08-05T06:35:00.091Z,97.71
2022-08-05T06:37:57.602Z,97.76
2022-08-05T06:40:32.413Z,97.50
2022-08-05T06:43:06.614Z,96.90
2022-08-05T06:46:06.931Z,96.45
2022-08-05T06:48:56.331Z,96.30
2022-08-05T06:51:32.257Z,96.96
2022-08-05T06:54:05.210Z,96.30
2022-08-05T06:57:57.258Z,96.47
2022-08-05T07:00:41.307Z,97.16
2022-08-05T07:03:32.713Z,96.66
2022-08-05T07:06:16.045Z,95.82
2022-08-05T07:12:04.146Z,95.17
2022-08-05T07:15:34.470Z,95.01
2022-08-05T07:18:29.331Z,94.76
2022-08-05T07:21:25.606Z,92.73
2022-08-05T07:27:17.348Z,91.76
2022-08-05T07:30:40.010Z,89.87
2022-08-05T07:33:36.802Z,89.24
2022-08-05T07:36:21.486Z,89.05
2022-08-05T07:39:24.637Z,90.14
2022-08-05T07:45:57.719Z,89.00
2022-08-05T07:49:01.422Z,89.28
2022-08-05T07:51:53.120Z,86.72
2022-08-05T07:57:50.595Z,86.32
2022-08-05T08:00:30.471Z,86.81
2022-08-05T08:03:18.797Z,86.43
2022-08-05T08:06:02.547Z,87.17
2022-08-05T08:08:39.858Z,86.83
2022-08-05T08:11:47.603Z,86.59
2022-08-05T08:14:37.819Z,84.90
2022-08-05T08:17:27.846Z,83.69
2022-08-05T08:20:44.573Z,83.22
2022-08-05T08:26:27.051Z,80.54
2022-08-05T08:29:45.107Z,80.16
2022-08-05T08:35:27.938Z,79.40
2022-08-05T08:38:16.737Z,77.75
2022-08-05T08:41:52.511Z,78.04
2022-08-05T08:45:17.713Z,77.64
2022-08-05T08:48:07.730Z,77.13
2022-08-05T08:52:02.040Z,78.22
2022-08-05T08:54:08.091Z,77.39
2022-08-05T08:56:57.059Z,76.75
2022-08-05T09:00:02.504Z,79.03
2022-08-05T09:02:38.566Z,76.90
2022-08-05T09:05:38.368Z,76.08
2022-08-05T09:08:31.344Z,75.34
2022-08-05T09:11:18.575Z,77.17
2022-08-05T09:14:57.460Z,76.18
2022-08-05T09:17:42.459Z,75.26
2022-08-05T09:20:36.493Z,75.70
2022-08-05T09:23:21.957Z,75.01
2022-08-05T09:26:20.820Z,75.36
2022-08-05T09:29:31.105Z,77.55
2022-08-05T09:32:42.299Z,79.04
2022-08-05T09:35:27.069Z,78.77
2022-08-05T09:38:29.412Z,79.59
2022-08-05T09:41:09.094Z,79.42
2022-08-05T09:43:44.093Z,78.73
2022-08-05T09:46:35.237Z,77.98
2022-08-05T09:49:40.365Z,77.54
2022-08-05T09:52:18.397Z,75.41
2022-08-05T09:55:56.545Z,73.15
2022-08-05T09:58:00.657Z,73.55
2022-08-05T10:00:40.988Z,70.95
2022-08-05T10:03:16.316Z,69.08
2022-08-05T10:06:15.451Z,66.19
2022-08-05T10:08:56.824Z,63.80
2022-08-05T10:11:56.218Z,63.20
2022-08-05T10:14:36.375Z,62.95
2022-08-05T10:17:37.622Z,63.70
2022-08-05T10:20:10.127Z,63.49
2022-08-05T10:22:48.770Z,62.17
2022-08-05T10:25:24.040Z,61.48
2022-08-05T10:28:13.435Z,60.68
2022-08-05T10:32:50.703Z,59.61
2022-08-05T10:33:54.092Z,53.64
2022-08-05T10:36:26.832Z,49.21
2022-08-05T10:39:10.301Z,45.42
2022-08-05T10:42:01.020Z,46.20
2022-08-05T10:44:35.526Z,47.54
2022-08-05T10:47:26.844Z,46.76
2022-08-05T10:50:28.068Z,47.64
2022-08-05T10:53:42.634Z,46.36
2022-08-05T10:56:25.824Z,46.40
2022-08-05T10:59:06.983Z,44.69
2022-08-05T11:01:55.046Z,42.95
2022-08-05T11:04:45.968Z,43.70
2022-08-05T11:07:32.893Z,43.10
2022-08-05T11:10:31.039Z,43.96
2022-08-05T11:13:11.356Z,41.93
2022-08-05T11:16:47.902Z,39.84
2022-08-05T11:20:16.792Z,39.53
2022-08-05T11:22:49.761Z,39.74
2022-08-05T11:26:04.586Z,41.07
2022-08-05T11:28:43.252Z,38.41
2022-08-05T11:31:19.597Z,39.68
2022-08-05T11:34:09.000Z,40.98
2022-08-05T11:36:52.817Z,41.08
2022-08-05T11:40:00.528Z,42.18
2022-08-05T11:42:43.895Z,43.11
2022-08-05T11:45:27.089Z,43.52
2022-08-05T11:48:15.947Z,45.37
2022-08-05T11:51:01.370Z,47.34
2022-08-05T11:53:40.893Z,47.84
2022-08-05T11:56:15.389Z,47.64
2022-08-05T11:58:53.384Z,47.31
2022-08-05T12:01:26.083Z,48.15
2022-08-05T12:04:02.137Z,47.03
2022-08-05T12:06:36.017Z,44.72
2022-08-05T12:09:08.714Z,44.43
2022-08-05T12:11:53.732Z,45.27
2022-08-05T12:14:36.980Z,42.40
2022-08-05T12:21:08.853Z,41.92
2022-08-05T12:23:54.410Z,40.33
2022-08-05T12:26:44.532Z,39.11
2022-08-05T12:29:29.113Z,37.76
2022-08-05T12:32:18.583Z,38.98
2022-08-05T12:34:59.563Z,38.70
2022-08-05T12:38:03.032Z,37.85
2022-08-05T12:40:44.127Z,38.10
2022-08-05T12:43:25.640Z,37.65
2022-08-05T12:46:07.032Z,37.95
2022-08-05T12:48:50.760Z,39.58
2022-08-05T12:52:13.080Z,38.92
2022-08-05T12:54:27.758Z,39.97
2022-08-05T12:57:13.006Z,40.07
2022-08-05T13:01:56.981Z,39.11
2022-08-05T13:03:01.869Z,39.97
2022-08-05T13:05:46.832Z,39.57
2022-08-05T13:08:24.275Z,38.23
2022-08-05T13:11:02.428Z,37.94
2022-08-05T13:14:05.103Z,37.53
2022-08-05T13:16:52.366Z,37.36
2022-08-05T13:19:52.317Z,36.39
2022-08-05T13:22:29.872Z,37.88
2022-08-05T13:25:18.736Z,35.50
2022-08-05T13:41:35.850Z,36.19
2022-08-05T13:44:12.669Z,35.77
2022-08-05T13:47:04.548Z,35.79
2022-08-05T13:49:38.584Z,35.85
2022-08-05T13:52:29.775Z,36.31
2022-08-05T13:55:07.747Z,36.27
2022-08-05T13:57:50.951Z,35.74
2022-08-05T14:00:27.551Z,36.51
2022-08-05T14:03:01.113Z,36.50
2022-08-05T14:06:24.393Z,36.98
2022-08-05T14:08:27.720Z,36.47
2022-08-05T14:11:20.275Z,35.82
2022-08-05T14:13:56.918Z,35.81
2022-08-05T14:16:30.418Z,36.41
2022-08-05T14:19:04.387Z,37.10
2022-08-05T14:22:09.500Z,37.74
2022-08-05T14:24:30.533Z,37.29
2022-08-05T14:27:18.228Z,37.79
2022-08-05T14:29:52.195Z,37.95
2022-08-05T14:32:28.000Z,37.93
2022-08-05T14:35:00.768Z,36.84
2022-08-05T14:37:48.198Z,36.91
2022-08-05T14:40:24.461Z,36.41
2022-08-05T14:42:57.185Z,36.37
2022-08-05T14:45:30.924Z,36.81
2022-08-05T14:48:06.090Z,36.69
2022-08-05T14:50:41.575Z,36.43
2022-08-05T14:53:15.263Z,37.50
2022-08-05T14:55:52.313Z,38.38
2022-08-05T14:58:25.141Z,38.94
2022-08-05T15:01:01.467Z,39.81
2022-08-05T15:03:39.327Z,40.36
2022-08-05T15:06:15.757Z,40.82
2022-08-05T15:08:59.887Z,40.51
2022-08-05T15:11:51.556Z,40.76
2022-08-05T15:14:34.804Z,39.95
2022-08-05T15:17:44.563Z,40.36
2022-08-05T15:20:17.229Z,39.93
2022-08-05T15:22:54.915Z,38.81
2022-08-05T15:25:41.111Z,38.36
2022-08-05T15:28:24.402Z,38.23
2022-08-05T15:31:00.559Z,38.85
2022-08-05T15:34:04.643Z,38.96
2022-08-05T15:36:32.240Z,38.32
2022-08-05T15:40:41.143Z,37.94
2022-08-05T15:41:59.305Z,37.46
2022-08-05T15:44:32.174Z,37.69
2022-08-05T15:47:08.734Z,37.82
2022-08-05T15:49:56.697Z,37.39
2022-08-05T15:52:52.919Z,38.54
2022-08-05T15:56:03.203Z,38.91
2022-08-05T15:58:18.343Z,39.12
2022-08-05T16:01:11.767Z,39.23
2022-08-05T16:03:50.394Z,39.06
2022-08-05T16:06:23.692Z,39.72
2022-08-05T16:08:56.355Z,40.13
2022-08-05T16:11:42.404Z,41.25
2022-08-05T16:14:17.306Z,42.09
2022-08-05T16:16:50.574Z,42.91
2022-08-05T16:20:02.814Z,43.17
2022-08-05T16:22:15.713Z,42.33
2022-08-05T16:24:51.953Z,42.33
2022-08-05T16:27:32.089Z,42.09
2022-08-05T16:30:23.276Z,43.75
2022-08-05T16:32:59.799Z,44.75
2022-08-05T16:35:34.538Z,45.38
2022-08-05T16:38:25.030Z,46.88
2022-08-05T16:41:02.455Z,47.62
2022-08-05T16:43:56.394Z,47.40
2022-08-05T16:46:29.395Z,47.57
2022-08-05T16:49:05.700Z,46.50
2022-08-05T16:51:42.726Z,45.22
2022-08-05T16:54:28.881Z,44.76
2022-08-05T16:57:04.733Z,44.42
2022-08-05T17:00:01.464Z,43.96
2022-08-05T17:02:37.175Z,44.22
2022-08-05T17:05:09.979Z,44.22
2022-08-05T17:07:54.566Z,44.90
2022-08-05T17:10:30.464Z,44.45
2022-08-05T17:13:03.548Z,43.93
2022-08-05T17:15:48.949Z,42.57
2022-08-05T17:18:23.749Z,42.61
2022-08-05T17:20:56.787Z,42.32
2022-08-05T17:24:03.597Z,42.31
2022-08-05T17:26:24.739Z,42.09
2022-08-05T17:28:58.367Z,42.04
2022-08-05T17:31:56.558Z,41.68
2022-08-05T17:34:29.895Z,42.01
2022-08-05T17:37:32.092Z,40.94
2022-08-05T17:39:59.889Z,41.54
2022-08-05T17:42:33.098Z,40.84
2022-08-05T17:45:17.735Z,41.69
2022-08-05T17:47:56.025Z,41.44
2022-08-05T17:50:30.440Z,41.95
2022-08-05T17:53:05.453Z,41.78
2022-08-05T17:55:39.906Z,40.43
2022-08-05T17:58:14.627Z,39.77
2022-08-05T18:00:51.038Z,40.20
2022-08-05T18:03:56.449Z,40.91
2022-08-05T18:06:19.465Z,40.28
2022-08-05T18:09:04.002Z,40.42
2022-08-05T18:11:39.167Z,40.00
2022-08-05T18:14:13.250Z,39.95
2022-08-05T18:16:52.244Z,40.20
2022-08-05T18:19:26.006Z,40.52
2022-08-05T18:22:09.114Z,40.84
2022-08-05T18:24:43.668Z,41.17
2022-08-05T18:27:18.885Z,41.15
2022-08-05T18:29:54.926Z,41.62
2022-08-05T18:32:27.970Z,41.33
2022-08-05T18:35:01.243Z,41.13
2022-08-05T18:37:40.393Z,41.21
2022-08-05T18:40:34.094Z,41.87
2022-08-05T18:43:09.033Z,42.78
2022-08-05T18:45:49.213Z,44.19
2022-08-05T18:48:31.543Z,45.03
2022-08-05T18:52:04.543Z,45.59
2022-08-05T18:54:16.888Z,47.10
2022-08-05T18:56:51.298Z,48.61
2022-08-05T18:59:43.382Z,49.50
2022-08-05T19:02:36.525Z,50.85
2022-08-05T19:06:06.371Z,51.59
2022-08-05T19:08:12.244Z,52.30
2022-08-05T19:10:49.471Z,52.72
2022-08-05T19:13:22.072Z,53.35
2022-08-05T19:15:59.473Z,53.59
2022-08-05T19:18:36.295Z,54.54
2022-08-05T19:21:17.925Z,54.97
2022-08-05T19:24:05.951Z,55.68
2022-08-05T19:26:54.087Z,56.41
2022-08-05T19:29:35.992Z,56.42
2022-08-05T19:32:11.367Z,57.05
2022-08-05T19:34:55.160Z,57.86
2022-08-05T19:37:47.053Z,58.62
2022-08-05T19:40:24.165Z,59.72
2022-08-05T19:43:05.493Z,59.90
2022-08-05T19:45:39.771Z,60.37
2022-08-05T19:48:27.122Z,60.73
2022-08-05T19:50:59.736Z,61.35
2022-08-05T19:54:04.323Z,62.15
2022-08-05T19:56:32.464Z,62.34
2022-08-05T19:59:51.577Z,63.26
2022-08-05T20:02:03.085Z,63.53
2022-08-05T20:04:35.633Z,63.70
2022-08-05T20:07:13.281Z,63.82
2022-08-05T20:09:53.711Z,64.04
2022-08-05T20:12:26.988Z,63.89
2022-08-05T20:15:02.561Z,64.32
2022-08-05T20:17:35.221Z,65.19
2022-08-05T20:20:10.891Z,65.03
2022-08-05T20:22:46.830Z,65.72
2022-08-05T20:25:23.254Z,66.41
2022-08-05T20:27:55.878Z,66.69
2022-08-05T20:30:30.265Z,67.52
2022-08-05T20:33:02.984Z,68.00
2022-08-05T20:35:40.492Z,67.86
2022-08-05T20:38:27.133Z,67.59
2022-08-05T20:41:04.717Z,68.91
2022-08-05T20:43:59.132Z,69.52
2022-08-05T20:46:33.556Z,69.77
2022-08-05T20:49:06.316Z,69.64
2022-08-05T20:51:40.391Z,70.34
2022-08-05T20:54:14.045Z,70.61
2022-08-05T20:56:46.880Z,70.66
2022-08-05T20:59:27.040Z,71.23
2022-08-05T21:02:14.070Z,71.28
2022-08-05T21:04:50.696Z,71.43
2022-08-05T21:07:24.208Z,71.76
2022-08-05T21:09:57.994Z,72.25
2022-08-05T21:12:30.490Z,72.57
2022-08-05T21:15:06.054Z,73.15
2022-08-05T21:17:42.032Z,73.61
2022-08-05T21:20:15.233Z,73.66
2022-08-05T21:23:07.465Z,73.96
2022-08-05T21:25:44.547Z,73.80
2022-08-05T21:28:18.437Z,75.15
2022-08-05T21:30:56.105Z,75.34
2022-08-05T21:33:39.781Z,75.97
2022-08-05T21:36:12.962Z,75.61
2022-08-05T21:38:51.846Z,76.61
2022-08-05T21:41:25.785Z,77.28
2022-08-05T21:44:05.375Z,77.36
2022-08-05T21:46:38.054Z,77.69
2022-08-05T21:49:48.069Z,77.79
2022-08-05T21:52:16.440Z,78.34
2022-08-05T21:54:55.279Z,78.48
2022-08-05T21:57:31.312Z,78.67
2022-08-05T22:00:11.141Z,79.32
2022-08-05T22:02:44.856Z,79.29
2022-08-05T22:05:18.796Z,79.69
2022-08-05T22:08:02.567Z,80.37
2022-08-05T22:10:35.537Z,80.68
2022-08-05T22:14:06.626Z,81.01
2022-08-05T22:16:15.301Z,81.32
2022-08-05T22:18:53.377Z,81.90
2022-08-05T22:21:26.050Z,81.99
2022-08-05T22:24:39.475Z,82.48
2022-08-05T22:28:08.743Z,82.72
2022-08-05T22:30:21.181Z,84.10
2022-08-05T22:32:53.708Z,84.41
2022-08-05T22:35:38.633Z,84.59
2022-08-05T22:38:20.843Z,84.77
2022-08-05T22:40:54.863Z,85.69
2022-08-05T22:43:36.688Z,85.90
2022-08-05T22:46:13.714Z,86.05
2022-08-05T22:48:55.701Z,86.36
2022-08-05T22:51:29.980Z,86.68
2022-08-05T22:54:20.760Z,86.71
2022-08-05T22:56:56.164Z,86.57
2022-08-05T22:59:43.985Z,87.18
2022-08-05T23:02:28.725Z,87.33
2022-08-05T23:05:04.942Z,87.54
2022-08-05T23:07:48.379Z,87.54
2022-08-05T23:10:23.595Z,87.67
2022-08-05T23:12:56.654Z,88.06
2022-08-05T23:15:35.278Z,88.42
2022-08-05T23:18:11.620Z,88.64
2022-08-05T23:20:44.570Z,89.57
2022-08-05T23:23:17.633Z,89.41
2022-08-05T23:25:55.209Z,89.82
2022-08-05T23:28:29.362Z,90.09
2022-08-05T23:31:16.355Z,90.99
2022-08-05T23:34:06.092Z,91.32
2022-08-05T23:36:44.193Z,91.74
2022-08-05T23:39:31.772Z,91.71
2022-08-05T23:42:08.636Z,92.28
2022-08-05T23:44:47.203Z,92.30
2022-08-05T23:47:27.097Z,92.70
2022-08-05T23:49:59.856Z,93.01
2022-08-05T23:52:35.952Z,93.29
2022-08-05T23:55:10.936Z,93.46
2022-08-05T23:57:48.814Z,94.01
